Time,TemperatureF,DewpointF,PressureIn,WindDirection,WindDirectionDegrees,WindSpeedMPH,WindSpeedGustMPH,Humidity,HourlyPrecipIn,Conditions,Clouds,dailyrainin,SolarRadiationWatts/m^2,SoftwareType,DateUTC
2013-06-16 00:00:00,53.0,30.0,-100.00,East,87,1.0,3.0,42,-99.99,,,0.00,0.000000,,2013-06-16 06:00:00,
2013-06-16 00:52:00,53.0,30.0,-100.00,East,87,1.0,3.0,42,-99.99,,,0.00,0.000000,,2013-06-16 06:52:00,
2013-06-16 01:00:00,52.0,-99.9,-100.00,North,-999,-999.0,-999.0,-999,-99.99,,,0.00,,,2013-06-16 07:00:00,
2013-06-16 01:54:00,52.0,-99.9,-100.00,North,-999,-999.0,-999.0,-999,-99.99,,,0.00,,,2013-06-16 07:54:00,
2013-06-16 02:00:00,53.0,33.0,-100.00,SSE,149,2.0,4.0,46,-99.99,,,0.00,0.000000,,2013-06-16 08:00:00,
2013-06-16 02:54:00,53.0,33.0,-100.00,SSE,149,2.0,4.0,46,-99.99,,,0.00,0.000000,,2013-06-16 08:54:00,
2013-06-16 03:00:00,51.0,31.0,-100.00,SSE,155,1.0,3.0,46,-99.99,,,0.00,0.000000,,2013-06-16 09:00:00,
2013-06-16 03:52:00,51.0,31.0,-100.00,SSE,155,1.0,3.0,46,-99.99,,,0.00,0.000000,,2013-06-16 09:52:00,
2013-06-16 04:00:00,52.0,34.0,-100.00,SE,142,1.0,2.0,49,-99.99,,,0.00,0.000000,,2013-06-16 10:00:00,
2013-06-16 04:54:00,52.0,34.0,-100.00,SE,142,1.0,2.0,49,-99.99,,,0.00,0.000000,,2013-06-16 10:54:00,
2013-06-16 05:00:00,51.0,32.0,-100.00,SSE,149,1.0,2.0,48,-99.99,,,-99.99,0.000000,,2013-06-16 11:00:00,
2013-06-16 05:53:00,51.0,32.0,-100.00,SSE,149,1.0,2.0,48,-99.99,,,-99.99,0.000000,,2013-06-16 11:53:00,
2013-06-16 06:00:00,50.0,33.0,-100.00,SSE,162,1.0,2.0,51,-99.99,,,0.00,0.900000,,2013-06-16 12:00:00,
2013-06-16 06:53:00,50.0,33.0,-100.00,SSE,162,1.0,2.0,51,-99.99,,,0.00,0.900000,,2013-06-16 12:53:00,
2013-06-16 07:00:00,51.0,35.0,-100.00,SSE,159,2.0,2.0,55,-99.99,,,-99.99,18.299999,,2013-06-16 13:00:00,
2013-06-16 07:54:00,51.0,35.0,-100.00,SSE,159,2.0,2.0,55,-99.99,,,-99.99,18.299999,,2013-06-16 13:54:00,
2013-06-16 08:00:00,56.0,-99.9,-100.00,North,-999,-999.0,-999.0,-999,-99.99,,,0.00,,,2013-06-16 14:00:00,
2013-06-16 08:53:00,56.0,-99.9,-100.00,North,-999,-999.0,-999.0,-999,-99.99,,,0.00,,,2013-06-16 14:53:00,
2013-06-16 09:00:00,60.0,39.0,-100.00,NNE,31,1.0,3.0,45,-99.99,,,-99.99,162.100006,,2013-06-16 15:00:00,
2013-06-16 09:53:00,60.0,39.0,-100.00,NNE,31,1.0,3.0,45,-99.99,,,-99.99,162.100006,,2013-06-16 15:53:00,
2013-06-16 10:00:00,61.0,34.0,-100.00,NE,39,1.0,4.0,36,-99.99,,,0.00,167.000000,,2013-06-16 16:00:00,
2013-06-16 10:53:00,61.0,34.0,-100.00,NE,39,1.0,4.0,36,-99.99,,,0.00,167.000000,,2013-06-16 16:53:00,
2013-06-16 11:00:00,67.0,36.0,-100.00,NNE,27,1.0,5.0,32,-99.99,,,0.00,254.600006,,2013-06-16 17:00:00,
2013-06-16 11:53:00,67.0,36.0,-100.00,NNE,27,1.0,5.0,32,-99.99,,,0.00,254.600006,,2013-06-16 17:53:00,
2013-06-16 12:00:00,69.0,-99.9,-100.00,North,-999,-999.0,-999.0,-999,-99.99,,,0.00,,,2013-06-16 18:00:00,
2013-06-16 12:53:00,69.0,-99.9,-100.00,North,-999,-999.0,-999.0,-999,-99.99,,,0.00,,,2013-06-16 18:53:00,
2013-06-16 13:00:00,70.0,28.0,-100.00,NNE,28,2.0,6.0,21,-99.99,,,0.00,,,2013-06-16 19:00:00,
2013-06-16 13:53:00,70.0,28.0,-100.00,NNE,28,2.0,6.0,21,-99.99,,,0.00,,,2013-06-16 19:53:00,
2013-06-16 14:00:00,66.0,26.0,-100.00,NNE,29,1.0,5.0,22,-99.99,,,0.00,691.400024,,2013-06-16 20:00:00,
2013-06-16 14:53:00,66.0,26.0,-100.00,NNE,29,1.0,5.0,22,-99.99,,,0.00,691.400024,,2013-06-16 20:53:00,
2013-06-16 15:00:00,65.0,30.0,-100.00,NE,51,1.0,4.0,26,-99.99,,,0.00,262.200012,,2013-06-16 21:00:00,
2013-06-16 15:53:00,65.0,30.0,-100.00,NE,51,1.0,4.0,26,-99.99,,,0.00,262.200012,,2013-06-16 21:53:00,
2013-06-16 16:00:00,71.0,30.0,-100.00,NNE,26,2.0,6.0,22,-99.99,,,0.00,899.299988,,2013-06-16 22:00:00,
2013-06-16 16:52:00,71.0,30.0,-100.00,NNE,26,2.0,6.0,22,-99.99,,,0.00,899.299988,,2013-06-16 22:52:00,
2013-06-16 17:00:00,67.0,33.0,-100.00,ENE,77,1.0,6.0,28,-99.99,,,0.00,208.800003,,2013-06-16 23:00:00,
2013-06-16 17:52:00,67.0,33.0,-100.00,ENE,77,1.0,6.0,28,-99.99,,,0.00,208.800003,,2013-06-16 23:52:00,
2013-06-16 18:00:00,68.0,29.0,-100.00,NE,39,1.0,5.0,23,-99.99,,,0.00,98.300003,,2013-06-17 00:00:00,
2013-06-16 18:52:00,68.0,29.0,-100.00,NE,39,1.0,5.0,23,-99.99,,,0.00,98.300003,,2013-06-17 00:52:00,
2013-06-16 19:00:00,65.0,25.0,-100.00,NE,53,1.0,6.0,22,-99.99,,,0.00,73.599998,,2013-06-17 01:00:00,
2013-06-16 19:53:00,65.0,25.0,-100.00,NE,53,1.0,6.0,22,-99.99,,,0.00,73.599998,,2013-06-17 01:53:00,
2013-06-16 20:00:00,60.0,28.0,-100.00,ESE,108,1.0,5.0,29,-99.99,,,0.00,20.200001,,2013-06-17 02:00:00,
2013-06-16 20:53:00,60.0,28.0,-100.00,ESE,108,1.0,5.0,29,-99.99,,,0.00,20.200001,,2013-06-17 02:53:00,
2013-06-16 21:00:00,59.0,31.0,-100.00,East,86,1.0,4.0,34,-99.99,,,0.00,0.600000,,2013-06-17 03:00:00,
2013-06-16 21:54:00,59.0,31.0,-100.00,East,86,1.0,4.0,34,-99.99,,,0.00,0.600000,,2013-06-17 03:54:00,
2013-06-16 22:00:00,54.0,29.0,-100.00,NNE,15,1.0,4.0,38,-99.99,,,0.00,0.000000,,2013-06-17 04:00:00,
2013-06-16 22:53:00,54.0,29.0,-100.00,NNE,15,1.0,4.0,38,-99.99,,,0.00,0.000000,,2013-06-17 04:53:00,
2013-06-16 23:00:00,53.0,-99.9,-100.00,North,-999,-999.0,-999.0,-999,-99.99,,,0.00,,,2013-06-17 05:00:00,
2013-06-16 23:53:00,53.0,-99.9,-100.00,North,-999,-999.0,-999.0,-999,-99.99,,,0.00,,,2013-06-17 05:53:00,